Terminal Aerodrome Forecast
Issued by NWS

Home | Current Version | Previous Version | Text Only | Print | Product List | Glossary On
Versions: 1 2 3 4 5 6 7 8 9 10 11 12 13 14 15 16 17 18 19 20 21 22 23
000
FTUS46 KMFR 262340
TAFLMT
TAF
KLMT 262340Z 2700/2724 29018G28KT P6SM -SHRA SCT030 BKN045
     FM270300 29010KT P6SM SCT035
     FM270900 28005KT P6SM SCT030 BKN250
     FM272100 31013G20KT P6SM BKN050=

USA.gov is the U.S. government's official web portal to all federal, state and local government web resources and services.